Terminal Aerodrome Forecast
Issued by NWS Blacksburg, VA

Current Version | Previous Version | Graphics & Text | Print | Product List | Glossary On
Versions: 1 2 3 4 5 6 7 8 9 10 11 12
000
FTUS41 KRNK 162320
TAFBLF
TAF
KBLF 162320Z 1700/1724 35008KT P6SM SCT040
     FM170700 00000KT P6SM SKC
     FM171800 32004KT P6SM SKC=

USA.gov is the U.S. government's official web portal to all federal, state and local government web resources and services.